createdAt,value
2023-01-09T00:00:23.988Z,70.30
2023-01-09T00:01:31.194Z,70.15
2023-01-09T00:02:33.861Z,70.67
2023-01-09T00:03:38.085Z,71.09
2023-01-09T00:04:42.989Z,71.17
2023-01-09T00:05:46.801Z,71.34
2023-01-09T00:06:54.350Z,71.39
2023-01-09T00:07:58.148Z,71.39
2023-01-09T00:09:02.381Z,71.34
2023-01-09T00:10:05.945Z,71.37
2023-01-09T00:11:09.699Z,71.32
2023-01-09T00:12:12.190Z,71.35
2023-01-09T00:13:18.369Z,71.31
2023-01-09T00:14:23.052Z,71.39
2023-01-09T00:15:27.019Z,71.26
2023-01-09T00:16:30.259Z,71.30
2023-01-09T00:17:33.852Z,71.50
2023-01-09T00:18:37.286Z,71.63
2023-01-09T00:19:40.883Z,71.47
2023-01-09T00:20:45.008Z,71.64
2023-01-09T00:21:49.105Z,71.51
2023-01-09T00:22:51.713Z,71.54
2023-01-09T00:23:55.651Z,71.60
2023-01-09T00:24:58.549Z,71.45
2023-01-09T00:26:07.391Z,71.44
2023-01-09T00:27:10.096Z,71.11
2023-01-09T00:28:13.846Z,70.88
2023-01-09T00:29:17.294Z,70.57
2023-01-09T00:30:19.966Z,70.52
2023-01-09T00:31:23.725Z,70.16
2023-01-09T00:32:26.291Z,70.10
2023-01-09T00:33:32.221Z,69.56
2023-01-09T00:34:37.678Z,69.43
2023-01-09T00:35:41.300Z,69.11
2023-01-09T00:36:46.315Z,68.95
2023-01-09T00:37:48.830Z,68.79
2023-01-09T00:38:52.889Z,68.77
2023-01-09T00:39:55.811Z,68.59
2023-01-09T00:41:01.382Z,68.64
2023-01-09T00:42:07.145Z,68.41
2023-01-09T00:43:10.115Z,68.17
2023-01-09T00:44:17.545Z,68.11
2023-01-09T00:45:29.291Z,67.87
2023-01-09T00:46:35.239Z,67.76
2023-01-09T00:47:42.954Z,67.65
2023-01-09T00:48:50.031Z,67.69
2023-01-09T00:49:53.866Z,67.76
2023-01-09T00:51:00.238Z,67.92
2023-01-09T00:52:05.671Z,68.00
2023-01-09T00:53:13.967Z,67.99
2023-01-09T00:54:19.631Z,68.02
2023-01-09T00:55:23.599Z,68.04
2023-01-09T00:56:26.641Z,68.26
2023-01-09T00:57:30.362Z,68.13
2023-01-09T00:58:34.055Z,68.22
2023-01-09T00:59:37.723Z,68.17
2023-01-09T01:00:40.648Z,68.21
2023-01-09T01:01:44.602Z,68.17
2023-01-09T01:02:47.316Z,68.38
2023-01-09T01:03:50.946Z,68.18
2023-01-09T01:05:11.714Z,68.18
2023-01-09T01:06:33.271Z,68.00
2023-01-09T01:07:40.429Z,68.20
2023-01-09T01:08:44.329Z,68.24
2023-01-09T01:09:46.951Z,68.33
2023-01-09T01:10:51.217Z,68.23
2023-01-09T01:11:53.833Z,68.34
2023-01-09T01:12:57.587Z,68.09
2023-01-09T01:14:01.327Z,68.28
2023-01-09T01:15:04.811Z,68.04
2023-01-09T01:16:10.423Z,68.15
2023-01-09T01:17:13.000Z,68.19
2023-01-09T01:18:16.791Z,68.13
2023-01-09T01:19:19.423Z,68.57
2023-01-09T01:20:23.152Z,68.25
2023-01-09T01:21:27.054Z,68.37
2023-01-09T01:22:29.583Z,68.46
2023-01-09T01:23:34.706Z,68.34
2023-01-09T01:24:37.530Z,68.57
2023-01-09T01:25:44.096Z,68.45
2023-01-09T01:26:47.454Z,68.51
2023-01-09T01:27:51.531Z,68.60
2023-01-09T01:28:54.094Z,68.68
2023-01-09T01:29:58.177Z,68.51
2023-01-09T01:31:00.938Z,68.59
2023-01-09T01:32:04.725Z,68.59
2023-01-09T01:33:07.637Z,68.59
2023-01-09T01:34:11.235Z,68.83
2023-01-09T01:35:14.193Z,68.55
2023-01-09T01:36:18.238Z,68.57
2023-01-09T01:37:22.099Z,68.34
2023-01-09T01:38:25.763Z,68.36
2023-01-09T01:39:30.652Z,68.52
2023-01-09T01:40:34.664Z,68.57
2023-01-09T01:41:37.882Z,68.87
2023-01-09T01:42:47.902Z,68.90
2023-01-09T01:43:51.581Z,68.78
2023-01-09T01:45:02.588Z,68.79
2023-01-09T01:46:05.466Z,68.77
2023-01-09T01:47:09.569Z,68.68
2023-01-09T01:48:17.152Z,68.75
2023-01-09T01:49:20.649Z,68.83
2023-01-09T01:50:30.727Z,69.01
2023-01-09T01:51:39.671Z,68.97
2023-01-09T01:52:45.950Z,69.02
2023-01-09T01:53:52.664Z,69.28
2023-01-09T01:54:57.769Z,69.05
2023-01-09T01:56:06.920Z,68.96
2023-01-09T01:57:11.667Z,69.00
2023-01-09T01:58:16.173Z,69.02
2023-01-09T01:59:25.075Z,69.03
2023-01-09T02:00:33.222Z,69.02
2023-01-09T02:01:41.340Z,68.65
2023-01-09T02:02:46.058Z,68.68
2023-01-09T02:03:50.830Z,68.47
2023-01-09T02:04:56.417Z,68.71
2023-01-09T02:06:00.173Z,68.78
2023-01-09T02:07:07.997Z,69.04
2023-01-09T02:08:12.598Z,68.75
2023-01-09T02:09:18.521Z,68.52
2023-01-09T02:10:24.736Z,68.69
2023-01-09T02:11:28.276Z,68.69
2023-01-09T02:12:32.282Z,68.98
2023-01-09T02:13:40.605Z,68.49
2023-01-09T02:14:46.626Z,68.66
2023-01-09T02:16:02.906Z,68.62
2023-01-09T02:17:16.260Z,68.59
2023-01-09T02:18:42.659Z,68.30
2023-01-09T02:20:21.878Z,68.44
2023-01-09T02:21:37.987Z,68.85
2023-01-09T02:22:52.713Z,68.62
2023-01-09T02:24:34.867Z,68.51
2023-01-09T02:26:11.890Z,68.24
2023-01-09T02:27:42.127Z,68.71
2023-01-09T02:29:22.372Z,69.25
2023-01-09T02:30:43.237Z,69.02
2023-01-09T02:31:50.526Z,69.34
2023-01-09T02:33:15.073Z,69.61
2023-01-09T02:34:26.829Z,70.13
2023-01-09T02:35:47.756Z,69.94
2023-01-09T02:36:59.880Z,70.19
2023-01-09T02:38:11.280Z,69.63
2023-01-09T02:39:26.199Z,69.73
2023-01-09T02:40:34.509Z,69.38
2023-01-09T02:41:44.407Z,69.45
2023-01-09T02:42:48.852Z,69.31
2023-01-09T02:44:12.579Z,69.57
2023-01-09T02:45:15.650Z,70.00
2023-01-09T02:46:24.065Z,69.66
2023-01-09T02:47:51.160Z,69.73
2023-01-09T02:48:54.686Z,69.60
2023-01-09T02:50:03.371Z,69.22
2023-01-09T02:51:13.276Z,70.01
2023-01-09T02:52:32.952Z,70.16
2023-01-09T02:54:02.773Z,70.06
2023-01-09T02:55:12.133Z,70.29
2023-01-09T02:56:42.455Z,71.01
2023-01-09T02:57:57.575Z,70.77
2023-01-09T02:59:18.261Z,71.00
2023-01-09T03:00:33.475Z,71.04
2023-01-09T03:01:48.296Z,71.20
2023-01-09T03:02:57.867Z,70.68
2023-01-09T03:04:09.067Z,70.56
2023-01-09T03:05:20.592Z,70.64
2023-01-09T03:06:30.960Z,70.43
2023-01-09T03:07:39.070Z,70.99
2023-01-09T03:08:46.492Z,70.99
2023-01-09T03:09:52.842Z,71.28
2023-01-09T03:11:01.401Z,71.80
2023-01-09T03:12:09.331Z,71.70
2023-01-09T03:13:17.612Z,72.13
2023-01-09T03:14:23.152Z,72.10
2023-01-09T03:15:30.573Z,72.65
2023-01-09T03:16:36.709Z,72.14
2023-01-09T03:17:45.304Z,72.30
2023-01-09T03:18:49.781Z,71.50
2023-01-09T03:19:55.632Z,70.92
2023-01-09T03:20:59.277Z,70.77
2023-01-09T03:22:02.388Z,70.10
2023-01-09T03:23:08.598Z,69.79
2023-01-09T03:24:11.406Z,69.62
2023-01-09T03:25:18.506Z,68.90
2023-01-09T03:26:21.062Z,68.87
2023-01-09T03:27:24.859Z,68.63
2023-01-09T03:28:29.688Z,67.91
2023-01-09T03:29:33.462Z,67.51
2023-01-09T03:30:37.178Z,67.64
2023-01-09T03:31:41.852Z,67.76
2023-01-09T03:32:45.935Z,67.51
2023-01-09T03:33:49.837Z,67.65
2023-01-09T03:34:52.624Z,67.51
2023-01-09T03:35:56.152Z,67.12
2023-01-09T03:36:58.701Z,66.92
2023-01-09T03:38:02.430Z,67.06
2023-01-09T03:39:05.020Z,66.75
2023-01-09T03:40:11.215Z,67.32
2023-01-09T03:41:14.256Z,67.19
2023-01-09T03:42:17.841Z,66.99
2023-01-09T03:43:20.338Z,66.68
2023-01-09T03:44:24.403Z,66.41
2023-01-09T03:45:27.016Z,66.70
2023-01-09T03:46:30.947Z,66.62
2023-01-09T03:47:33.386Z,66.53
2023-01-09T03:48:38.859Z,66.33
2023-01-09T03:49:41.905Z,66.19
2023-01-09T03:50:47.486Z,66.44
2023-01-09T03:51:50.528Z,66.20
2023-01-09T03:52:54.205Z,66.11
2023-01-09T03:53:56.681Z,66.52
2023-01-09T03:55:00.376Z,67.07
2023-01-09T03:56:03.049Z,67.54
2023-01-09T03:57:07.457Z,67.39
2023-01-09T03:58:10.674Z,67.75
2023-01-09T03:59:14.693Z,67.89
2023-01-09T04:00:18.021Z,68.05
2023-01-09T04:01:21.956Z,67.96
2023-01-09T04:02:24.959Z,68.07
2023-01-09T04:03:28.840Z,67.79
2023-01-09T04:04:33.273Z,67.54
2023-01-09T04:05:37.551Z,67.73
2023-01-09T04:06:40.213Z,67.37
2023-01-09T04:07:43.803Z,66.70
2023-01-09T04:08:46.535Z,66.35
2023-01-09T04:09:50.822Z,66.42
2023-01-09T04:10:53.431Z,66.22
2023-01-09T04:11:57.472Z,65.70
2023-01-09T04:13:00.222Z,65.72
2023-01-09T04:14:04.281Z,65.44
2023-01-09T04:15:07.934Z,64.77
2023-01-09T04:16:11.474Z,64.62
2023-01-09T04:17:13.990Z,64.55
2023-01-09T04:18:18.027Z,64.64
2023-01-09T04:19:20.727Z,65.04
2023-01-09T04:20:26.180Z,64.99
2023-01-09T04:21:29.688Z,65.15
2023-01-09T04:22:32.334Z,65.75
2023-01-09T04:23:35.961Z,66.88
2023-01-09T04:24:38.389Z,66.81
2023-01-09T04:25:42.134Z,67.52
2023-01-09T04:26:44.714Z,68.09
2023-01-09T04:27:49.385Z,68.26
2023-01-09T04:28:52.077Z,68.35
2023-01-09T04:29:55.703Z,68.80
2023-01-09T04:30:58.482Z,68.94
2023-01-09T04:32:02.204Z,69.50
2023-01-09T04:33:04.922Z,70.21
2023-01-09T04:34:08.727Z,70.11
2023-01-09T04:35:11.542Z,69.83
2023-01-09T04:36:16.824Z,69.69
2023-01-09T04:37:19.366Z,69.49
2023-01-09T04:38:23.018Z,69.43
2023-01-09T04:39:25.478Z,69.92
2023-01-09T04:40:29.146Z,69.83
2023-01-09T04:41:50.766Z,70.25
2023-01-09T04:42:54.523Z,71.14
2023-01-09T04:43:57.108Z,71.37
2023-01-09T04:45:01.117Z,70.99
2023-01-09T04:46:04.134Z,71.13
2023-01-09T04:47:08.195Z,71.15
2023-01-09T04:48:11.166Z,70.77
2023-01-09T04:49:15.986Z,71.18
2023-01-09T04:50:18.881Z,71.10
2023-01-09T04:51:24.441Z,71.66
2023-01-09T04:52:28.311Z,71.74
2023-01-09T04:53:32.309Z,71.38
2023-01-09T04:54:35.356Z,71.31
2023-01-09T04:55:41.440Z,72.14
2023-01-09T04:56:43.961Z,71.44
2023-01-09T04:57:49.094Z,71.74
2023-01-09T04:58:52.195Z,71.25
2023-01-09T04:59:55.926Z,71.47
2023-01-09T05:00:58.797Z,71.05
2023-01-09T05:02:02.698Z,71.10
2023-01-09T05:03:06.374Z,70.87
2023-01-09T05:04:09.285Z,71.12
2023-01-09T05:05:13.168Z,71.26
2023-01-09T05:06:15.804Z,71.11
2023-01-09T05:07:20.926Z,71.03
2023-01-09T05:08:23.777Z,70.30
2023-01-09T05:09:27.971Z,71.22
2023-01-09T05:10:31.244Z,70.96
2023-01-09T05:11:35.778Z,71.56
2023-01-09T05:12:39.896Z,70.78
2023-01-09T05:13:43.572Z,71.05
2023-01-09T05:14:47.175Z,71.35
2023-01-09T05:15:49.703Z,70.65
2023-01-09T05:16:53.494Z,71.39
2023-01-09T05:17:56.025Z,71.80
2023-01-09T05:19:00.895Z,71.58
2023-01-09T05:20:04.227Z,70.94
2023-01-09T05:21:08.301Z,70.33
2023-01-09T05:22:11.533Z,70.62
2023-01-09T05:23:16.930Z,70.93
2023-01-09T05:24:19.882Z,70.11
2023-01-09T05:25:23.424Z,70.98
2023-01-09T05:26:25.942Z,70.30
2023-01-09T05:27:30.629Z,70.62
2023-01-09T05:28:33.868Z,70.85
2023-01-09T05:29:37.624Z,71.04
2023-01-09T05:30:40.418Z,70.54
2023-01-09T05:31:44.376Z,70.40
2023-01-09T05:32:46.995Z,70.45
2023-01-09T05:33:50.723Z,69.96
2023-01-09T05:34:54.379Z,69.94
2023-01-09T05:35:56.804Z,69.96
2023-01-09T05:37:00.343Z,69.76
2023-01-09T05:38:02.899Z,70.14
2023-01-09T05:39:08.265Z,69.11
2023-01-09T05:40:12.732Z,69.00
2023-01-09T05:41:16.539Z,67.70
2023-01-09T05:42:20.229Z,67.41
2023-01-09T05:43:24.078Z,66.42
2023-01-09T05:44:27.320Z,66.16
2023-01-09T05:45:31.097Z,66.57
2023-01-09T05:46:33.662Z,67.39
2023-01-09T05:47:37.698Z,68.08
2023-01-09T05:48:40.446Z,66.92
2023-01-09T05:49:43.914Z,65.96
2023-01-09T05:50:46.469Z,66.26
2023-01-09T05:51:50.311Z,66.88
2023-01-09T05:52:53.061Z,65.21
2023-01-09T05:53:56.781Z,64.83
2023-01-09T05:55:00.794Z,64.76
2023-01-09T05:56:04.580Z,64.67
2023-01-09T05:57:07.191Z,63.64
2023-01-09T05:58:11.107Z,63.16
2023-01-09T05:59:14.125Z,63.65
2023-01-09T06:00:19.355Z,63.81
2023-01-09T06:01:23.732Z,63.62
2023-01-09T06:02:27.825Z,63.76
2023-01-09T06:03:30.882Z,63.83
2023-01-09T06:04:35.346Z,63.87
2023-01-09T06:05:38.492Z,63.74
2023-01-09T06:06:42.484Z,63.64
2023-01-09T06:07:45.317Z,63.54
2023-01-09T06:08:49.059Z,63.68
2023-01-09T06:09:52.197Z,63.77
2023-01-09T06:10:57.233Z,63.89
2023-01-09T06:11:59.900Z,63.78
2023-01-09T06:13:03.954Z,63.88
2023-01-09T06:14:07.902Z,63.68
2023-01-09T06:15:11.265Z,63.28
2023-01-09T06:16:15.459Z,62.88
2023-01-09T06:17:18.023Z,62.75
2023-01-09T06:18:21.609Z,62.72
2023-01-09T06:19:24.464Z,62.93
2023-01-09T06:20:28.037Z,62.71
2023-01-09T06:21:32.250Z,62.95
2023-01-09T06:22:34.862Z,63.27
2023-01-09T06:23:38.806Z,64.89
2023-01-09T06:24:42.097Z,65.11
2023-01-09T06:25:45.680Z,65.14
2023-01-09T06:26:49.732Z,64.97
2023-01-09T06:27:53.426Z,65.42
2023-01-09T06:28:56.401Z,66.53
2023-01-09T06:29:59.986Z,66.75
2023-01-09T06:31:03.333Z,66.36
2023-01-09T06:32:07.556Z,66.31
2023-01-09T06:33:09.981Z,66.66
2023-01-09T06:34:14.400Z,67.18
2023-01-09T06:35:20.663Z,66.77
2023-01-09T06:36:24.793Z,66.85
2023-01-09T06:37:27.530Z,67.14
2023-01-09T06:38:31.141Z,67.48
2023-01-09T06:39:33.856Z,66.75
2023-01-09T06:40:37.674Z,67.58
2023-01-09T06:41:41.408Z,67.43
2023-01-09T06:42:46.571Z,66.91
2023-01-09T06:43:50.214Z,67.33
2023-01-09T06:44:53.269Z,68.36
2023-01-09T06:45:57.141Z,69.31
2023-01-09T06:46:59.688Z,70.08
2023-01-09T06:48:03.170Z,70.16
2023-01-09T06:49:06.125Z,69.68
2023-01-09T06:50:11.136Z,68.99
2023-01-09T06:51:15.130Z,68.00
2023-01-09T06:52:17.754Z,69.17
2023-01-09T06:53:21.959Z,69.29
2023-01-09T06:54:26.505Z,69.23
2023-01-09T06:55:31.460Z,68.87
2023-01-09T06:56:35.357Z,68.70
2023-01-09T06:57:38.031Z,69.05
2023-01-09T06:58:42.924Z,68.91
2023-01-09T06:59:45.418Z,68.34
2023-01-09T07:00:49.880Z,66.58
2023-01-09T07:01:53.842Z,67.36
2023-01-09T07:02:56.723Z,66.59
2023-01-09T07:04:00.366Z,66.34
2023-01-09T07:05:03.415Z,65.86
2023-01-09T07:06:08.349Z,65.58
2023-01-09T07:07:10.765Z,66.20
2023-01-09T07:08:15.289Z,65.92
2023-01-09T07:09:18.357Z,66.17
2023-01-09T07:10:22.572Z,66.39
2023-01-09T07:11:26.652Z,66.44
2023-01-09T07:12:29.050Z,65.90
2023-01-09T07:13:32.830Z,65.46
2023-01-09T07:14:37.016Z,66.17
2023-01-09T07:15:40.558Z,66.31
2023-01-09T07:16:44.115Z,67.37
2023-01-09T07:17:47.075Z,67.71
2023-01-09T07:18:50.926Z,69.19
2023-01-09T07:19:53.632Z,70.30
2023-01-09T07:20:57.439Z,71.11
2023-01-09T07:21:59.880Z,71.20
2023-01-09T07:23:03.591Z,70.65
2023-01-09T07:24:06.552Z,70.43
2023-01-09T07:25:10.265Z,70.31
2023-01-09T07:26:12.780Z,69.63
2023-01-09T07:27:16.271Z,69.30
2023-01-09T07:28:18.984Z,68.95
2023-01-09T07:29:23.732Z,68.89
2023-01-09T07:30:28.868Z,69.27
2023-01-09T07:31:32.241Z,68.92
2023-01-09T07:32:36.066Z,69.38
2023-01-09T07:33:40.763Z,70.13
2023-01-09T07:34:43.588Z,69.28
2023-01-09T07:35:47.240Z,68.80
2023-01-09T07:36:51.320Z,69.05
2023-01-09T07:37:55.051Z,68.36
2023-01-09T07:38:57.830Z,68.56
2023-01-09T07:40:01.721Z,68.93
2023-01-09T07:41:04.471Z,68.33
2023-01-09T07:42:08.005Z,68.44
2023-01-09T07:43:10.439Z,68.21
2023-01-09T07:44:14.806Z,68.49
2023-01-09T07:45:18.793Z,68.25
2023-01-09T07:46:23.769Z,68.47
2023-01-09T07:47:27.563Z,68.23
2023-01-09T07:48:30.074Z,68.94
2023-01-09T07:49:34.013Z,69.44
2023-01-09T07:50:36.815Z,68.98
2023-01-09T07:51:43.297Z,68.45
2023-01-09T07:52:46.291Z,68.42
2023-01-09T07:53:49.856Z,68.07
2023-01-09T07:54:53.394Z,67.76
2023-01-09T07:55:57.149Z,67.86
2023-01-09T07:57:00.676Z,68.54
2023-01-09T07:58:04.088Z,69.17
2023-01-09T07:59:07.817Z,69.36
2023-01-09T08:00:13.575Z,70.21
2023-01-09T08:01:17.403Z,70.93
2023-01-09T08:02:21.816Z,70.30
2023-01-09T08:03:27.012Z,69.72
2023-01-09T08:04:31.221Z,69.74
2023-01-09T08:05:33.883Z,69.64
2023-01-09T08:06:37.535Z,69.87
2023-01-09T08:07:40.007Z,69.28
2023-01-09T08:08:44.368Z,68.43
2023-01-09T08:09:48.009Z,67.90
2023-01-09T08:10:50.748Z,67.14
2023-01-09T08:11:55.705Z,66.17
2023-01-09T08:13:00.420Z,66.06
2023-01-09T08:14:03.289Z,65.43
2023-01-09T08:15:08.049Z,64.52
2023-01-09T08:16:11.482Z,64.51
2023-01-09T08:17:15.140Z,64.18
2023-01-09T08:18:20.743Z,63.76
2023-01-09T08:19:24.265Z,63.80
2023-01-09T08:20:27.688Z,63.29
2023-01-09T08:21:31.319Z,64.14
2023-01-09T08:22:35.087Z,64.45
2023-01-09T08:23:39.057Z,63.93
2023-01-09T08:24:41.463Z,62.83
2023-01-09T08:25:44.954Z,62.45
2023-01-09T08:26:48.541Z,62.43
2023-01-09T08:27:51.054Z,62.66
2023-01-09T08:28:54.465Z,63.21
2023-01-09T08:29:58.098Z,63.27
2023-01-09T08:31:01.497Z,63.42
2023-01-09T08:32:05.928Z,63.58
2023-01-09T08:33:09.724Z,63.49
2023-01-09T08:34:14.906Z,63.32
2023-01-09T08:35:17.714Z,63.38
2023-01-09T08:36:21.913Z,63.37
2023-01-09T08:37:25.062Z,63.03
2023-01-09T08:38:28.575Z,62.68
2023-01-09T08:39:31.226Z,62.59
2023-01-09T08:40:34.916Z,62.08
2023-01-09T08:41:55.853Z,61.66
2023-01-09T08:43:16.791Z,61.48
2023-01-09T08:44:37.671Z,62.19
2023-01-09T08:45:59.035Z,61.49
2023-01-09T08:47:08.809Z,61.32
2023-01-09T08:48:12.351Z,60.88
2023-01-09T08:49:18.364Z,59.15
2023-01-09T08:50:22.143Z,59.25
2023-01-09T08:51:25.787Z,60.73
2023-01-09T08:52:30.831Z,58.48
2023-01-09T08:53:34.193Z,57.61
2023-01-09T08:54:39.090Z,58.97
2023-01-09T08:55:42.779Z,58.72
2023-01-09T08:56:46.303Z,56.87
2023-01-09T08:57:50.463Z,57.11
2023-01-09T08:58:54.126Z,55.26
2023-01-09T08:59:58.034Z,57.15
2023-01-09T09:01:00.610Z,57.51
2023-01-09T09:02:04.227Z,57.29
2023-01-09T09:03:06.781Z,57.01
2023-01-09T09:04:10.354Z,56.22
2023-01-09T09:05:14.455Z,55.88
2023-01-09T09:06:17.927Z,55.57
2023-01-09T09:07:26.689Z,55.32
2023-01-09T09:08:29.479Z,55.50
2023-01-09T09:09:32.889Z,57.49
2023-01-09T09:10:35.514Z,57.27
2023-01-09T09:11:38.949Z,56.09
2023-01-09T09:12:42.405Z,55.02
2023-01-09T09:13:45.880Z,55.87
2023-01-09T09:15:07.125Z,54.70
2023-01-09T09:16:10.825Z,55.24
2023-01-09T09:17:13.250Z,54.76
2023-01-09T09:18:16.728Z,53.90
2023-01-09T09:19:19.298Z,53.40
2023-01-09T09:20:25.307Z,52.89
2023-01-09T09:21:28.781Z,52.44
2023-01-09T09:22:31.710Z,52.27
2023-01-09T09:23:35.265Z,51.61
2023-01-09T09:24:37.799Z,52.32
2023-01-09T09:25:41.452Z,50.75
2023-01-09T09:26:45.313Z,50.91
2023-01-09T09:27:49.174Z,50.37
2023-01-09T09:28:52.991Z,50.08
2023-01-09T09:29:56.497Z,49.72
2023-01-09T09:31:00.103Z,48.77
2023-01-09T09:32:02.754Z,49.57
2023-01-09T09:33:07.460Z,50.00
2023-01-09T09:34:13.077Z,49.89
2023-01-09T09:35:18.153Z,48.99
2023-01-09T09:36:23.221Z,49.05
2023-01-09T09:37:26.422Z,49.16
2023-01-09T09:38:30.020Z,48.84
2023-01-09T09:39:32.843Z,48.09
2023-01-09T09:41:01.753Z,47.99
2023-01-09T09:42:44.129Z,48.63
2023-01-09T09:44:28.102Z,48.78
2023-01-09T09:45:42.153Z,47.86
2023-01-09T09:46:56.864Z,46.14
2023-01-09T09:48:15.653Z,46.47
2023-01-09T09:49:27.629Z,45.53
2023-01-09T09:50:51.666Z,44.81
2023-01-09T09:52:11.008Z,43.99
2023-01-09T09:53:20.814Z,44.17
2023-01-09T09:54:32.725Z,43.35
2023-01-09T09:55:39.618Z,44.74
2023-01-09T09:56:49.661Z,45.00
2023-01-09T09:57:54.421Z,45.79
2023-01-09T09:59:04.359Z,45.63
2023-01-09T10:00:17.428Z,45.12
2023-01-09T10:01:26.447Z,46.64
2023-01-09T10:02:33.229Z,47.80
2023-01-09T10:03:39.750Z,47.52
2023-01-09T10:04:49.800Z,46.59
2023-01-09T10:05:54.823Z,46.16
2023-01-09T10:07:06.339Z,45.04
2023-01-09T10:08:16.898Z,43.37
2023-01-09T10:09:30.468Z,43.17
2023-01-09T10:10:40.628Z,43.23
2023-01-09T10:11:52.514Z,44.42
2023-01-09T10:12:59.739Z,44.57
2023-01-09T10:14:08.342Z,45.69
2023-01-09T10:15:18.975Z,46.14
2023-01-09T10:16:34.050Z,45.63
2023-01-09T10:18:01.237Z,44.93
2023-01-09T10:19:19.486Z,46.51
2023-01-09T10:20:43.921Z,47.60
2023-01-09T10:21:56.671Z,47.17
2023-01-09T10:23:11.320Z,47.01
2023-01-09T10:24:44.879Z,47.12
2023-01-09T10:25:53.994Z,46.41
2023-01-09T10:26:59.710Z,45.90
2023-01-09T10:28:29.382Z,46.61
2023-01-09T10:29:52.353Z,45.58
2023-01-09T10:31:06.214Z,43.83
2023-01-09T10:32:37.320Z,42.72
2023-01-09T10:33:56.307Z,44.07
2023-01-09T10:35:24.597Z,44.14
2023-01-09T10:36:57.626Z,42.24
2023-01-09T10:38:06.678Z,42.01
2023-01-09T10:39:18.090Z,42.54
2023-01-09T10:40:26.510Z,43.67
2023-01-09T10:41:34.764Z,42.68
2023-01-09T10:42:45.614Z,42.10
2023-01-09T10:43:56.227Z,41.61
2023-01-09T10:45:06.855Z,42.01
2023-01-09T10:46:17.412Z,44.38
2023-01-09T10:47:27.275Z,45.51
2023-01-09T10:48:36.239Z,46.30
2023-01-09T10:49:41.868Z,45.83
2023-01-09T10:50:49.379Z,44.61
2023-01-09T10:51:58.810Z,44.74
2023-01-09T10:53:16.756Z,46.27
2023-01-09T10:54:23.927Z,46.65
2023-01-09T10:55:36.705Z,47.16
2023-01-09T10:56:46.290Z,46.86
2023-01-09T10:57:55.876Z,47.02
2023-01-09T10:59:00.363Z,46.77
2023-01-09T11:00:04.976Z,47.80
2023-01-09T11:01:10.834Z,46.67
2023-01-09T11:02:27.357Z,45.58
2023-01-09T11:03:31.609Z,45.92
2023-01-09T11:04:38.030Z,46.14
2023-01-09T11:05:42.780Z,44.48
2023-01-09T11:06:49.172Z,45.31
2023-01-09T11:07:57.986Z,44.18
2023-01-09T11:09:04.905Z,43.68
2023-01-09T11:10:12.132Z,43.06
2023-01-09T11:11:33.293Z,42.97
2023-01-09T11:12:38.043Z,44.14
2023-01-09T11:13:48.077Z,44.53
2023-01-09T11:14:52.517Z,46.13
2023-01-09T11:16:07.100Z,46.29
2023-01-09T11:17:21.372Z,46.86
2023-01-09T11:18:26.039Z,46.12
2023-01-09T11:19:31.308Z,44.31
2023-01-09T11:20:34.970Z,45.15
2023-01-09T11:21:41.969Z,45.18
2023-01-09T11:22:47.605Z,44.68
2023-01-09T11:23:52.552Z,44.00
2023-01-09T11:25:04.027Z,44.20
2023-01-09T11:26:10.305Z,43.85
2023-01-09T11:27:23.954Z,43.50
2023-01-09T11:28:28.585Z,44.38
2023-01-09T11:29:32.328Z,45.32
2023-01-09T11:30:37.778Z,44.33
2023-01-09T11:31:43.546Z,42.76
2023-01-09T11:32:48.015Z,41.94
2023-01-09T11:33:51.966Z,40.34
2023-01-09T11:34:55.843Z,40.20
2023-01-09T11:36:04.227Z,39.27
2023-01-09T11:37:10.619Z,39.89
2023-01-09T11:38:17.928Z,39.72
2023-01-09T11:39:25.763Z,40.24
2023-01-09T11:40:36.113Z,40.04
2023-01-09T11:41:40.383Z,40.56
2023-01-09T11:43:02.893Z,41.42
2023-01-09T11:44:07.177Z,42.09
2023-01-09T11:45:16.813Z,41.46
2023-01-09T11:46:38.749Z,41.63
2023-01-09T11:47:41.448Z,43.26
2023-01-09T11:48:57.939Z,44.79
2023-01-09T11:50:10.380Z,45.75
2023-01-09T11:51:23.365Z,45.12
2023-01-09T11:52:27.864Z,45.54
2023-01-09T11:53:47.166Z,44.63
2023-01-09T11:54:57.291Z,44.96
2023-01-09T11:56:02.765Z,45.25
2023-01-09T11:57:06.962Z,46.53
2023-01-09T11:58:15.111Z,46.32
2023-01-09T11:59:21.753Z,46.00
2023-01-09T12:00:30.018Z,47.01
2023-01-09T12:01:57.952Z,45.63
2023-01-09T12:03:14.185Z,47.43
2023-01-09T12:04:29.040Z,47.42
2023-01-09T12:05:44.001Z,46.46
2023-01-09T12:07:00.867Z,45.62
2023-01-09T12:08:34.229Z,45.20
2023-01-09T12:09:45.106Z,46.61
2023-01-09T12:11:24.782Z,46.39
2023-01-09T12:12:38.243Z,46.22
2023-01-09T12:13:56.394Z,47.26
2023-01-09T12:15:10.144Z,46.07
2023-01-09T12:16:25.349Z,45.58
2023-01-09T12:17:49.424Z,43.36
2023-01-09T12:19:05.814Z,44.71
2023-01-09T12:20:31.442Z,44.86
2023-01-09T12:21:37.887Z,46.20
2023-01-09T12:22:46.360Z,47.01
2023-01-09T12:24:34.502Z,46.36
2023-01-09T12:25:50.570Z,44.97
2023-01-09T12:27:08.975Z,45.27
2023-01-09T12:28:38.452Z,45.23
2023-01-09T12:29:58.322Z,45.36
2023-01-09T12:31:17.180Z,43.93
2023-01-09T12:32:36.992Z,43.47
2023-01-09T12:33:47.860Z,43.47
2023-01-09T12:35:03.221Z,44.24
2023-01-09T12:36:21.555Z,44.71
2023-01-09T12:38:07.010Z,44.73
2023-01-09T12:39:22.824Z,43.43
2023-01-09T12:40:40.090Z,43.58
2023-01-09T12:42:20.714Z,44.04
2023-01-09T12:43:34.326Z,43.22
2023-01-09T12:44:54.236Z,44.19
2023-01-09T12:46:10.388Z,42.53
2023-01-09T12:47:30.779Z,43.81
2023-01-09T12:49:00.109Z,43.18
2023-01-09T12:50:21.956Z,42.70
2023-01-09T12:51:36.717Z,43.43
2023-01-09T12:52:43.292Z,43.57
2023-01-09T12:53:53.950Z,44.04
2023-01-09T12:55:04.943Z,43.53
2023-01-09T12:56:15.209Z,43.82
2023-01-09T12:57:24.583Z,43.85
2023-01-09T12:58:43.554Z,43.95
2023-01-09T12:59:52.408Z,45.77
2023-01-09T13:00:58.247Z,46.78
2023-01-09T13:02:08.459Z,45.74
2023-01-09T13:03:19.170Z,45.77
2023-01-09T13:04:28.881Z,45.71
2023-01-09T13:05:36.983Z,45.96
2023-01-09T13:06:46.108Z,44.93
2023-01-09T13:07:53.329Z,44.46
2023-01-09T13:09:16.107Z,45.00
2023-01-09T13:10:25.164Z,44.94
2023-01-09T13:11:35.738Z,44.39
2023-01-09T13:12:44.054Z,44.25
2023-01-09T13:13:53.015Z,42.20
2023-01-09T13:15:00.988Z,44.20
2023-01-09T13:16:10.133Z,43.97
2023-01-09T13:17:20.330Z,45.58
2023-01-09T13:18:31.489Z,44.70
2023-01-09T13:19:39.723Z,44.69
2023-01-09T13:20:46.848Z,44.18
2023-01-09T13:21:52.433Z,44.17
2023-01-09T13:22:56.425Z,44.36
2023-01-09T13:24:06.904Z,45.58
2023-01-09T13:25:34.854Z,45.97
2023-01-09T13:26:44.374Z,45.97
2023-01-09T13:27:56.651Z,45.28
2023-01-09T13:29:08.211Z,45.71
2023-01-09T13:32:09.043Z,46.00
2023-01-09T13:33:20.007Z,44.96
2023-01-09T13:34:27.654Z,45.32
2023-01-09T13:35:32.045Z,45.09
2023-01-09T13:36:39.854Z,46.17
2023-01-09T13:37:51.148Z,45.83
2023-01-09T13:38:57.153Z,45.58
2023-01-09T13:40:02.853Z,46.24
2023-01-09T13:41:32.158Z,46.15
2023-01-09T13:42:44.389Z,45.79
2023-01-09T13:44:00.032Z,44.97
2023-01-09T13:45:20.931Z,46.11
2023-01-09T13:46:24.541Z,45.79
2023-01-09T13:47:30.078Z,44.50
2023-01-09T13:48:42.718Z,45.84
2023-01-09T13:50:36.910Z,46.48
2023-01-09T13:52:00.176Z,46.42
2023-01-09T13:53:46.803Z,46.96
2023-01-09T13:55:23.840Z,46.50
2023-01-09T13:56:27.456Z,46.04
2023-01-09T13:57:32.857Z,45.60
2023-01-09T13:59:27.180Z,46.40
2023-01-09T14:00:54.774Z,45.41
2023-01-09T14:01:59.107Z,44.49
2023-01-09T14:03:14.232Z,42.60
2023-01-09T14:04:43.977Z,41.81
2023-01-09T14:06:17.918Z,40.71
2023-01-09T14:07:23.935Z,38.19
2023-01-09T14:08:29.100Z,39.40
2023-01-09T14:09:38.154Z,38.31
2023-01-09T14:10:50.385Z,38.29
2023-01-09T14:12:04.962Z,39.98
2023-01-09T14:13:15.261Z,40.81
2023-01-09T14:14:27.605Z,41.99
2023-01-09T14:15:37.211Z,41.10
2023-01-09T14:16:43.565Z,39.51
2023-01-09T14:17:50.148Z,40.04
2023-01-09T14:18:57.851Z,40.90
2023-01-09T14:20:06.225Z,40.44
2023-01-09T14:21:13.046Z,37.19
2023-01-09T14:22:28.653Z,36.91
2023-01-09T14:23:50.939Z,37.46
2023-01-09T14:25:02.645Z,36.78
2023-01-09T14:26:06.609Z,35.39
2023-01-09T14:28:08.476Z,34.77
2023-01-09T14:29:44.899Z,34.36
2023-01-09T14:31:11.104Z,34.49
2023-01-09T14:32:43.575Z,34.37
2023-01-09T14:33:49.295Z,34.72
2023-01-09T14:34:56.653Z,34.86
2023-01-09T14:36:10.728Z,34.66
2023-01-09T14:37:16.070Z,35.25